createdAt,value
2023-11-18T00:01:50.653Z,4.90
2023-11-18T00:04:17.402Z,4.87
2023-11-18T00:06:45.132Z,4.86
2023-11-18T00:09:14.128Z,4.83
2023-11-18T00:11:41.288Z,4.76
2023-11-18T00:14:08.383Z,4.62
2023-11-18T00:16:35.618Z,4.64
2023-11-18T00:19:02.639Z,4.67
2023-11-18T00:21:29.058Z,4.72
2023-11-18T00:23:56.948Z,4.74
2023-11-18T00:26:23.322Z,4.73
2023-11-18T00:28:49.826Z,4.66
2023-11-18T00:31:16.295Z,4.71
2023-11-18T00:33:42.805Z,4.73
2023-11-18T00:36:09.716Z,4.71
2023-11-18T00:38:36.204Z,4.67
2023-11-18T00:41:02.669Z,4.68
2023-11-18T00:43:29.288Z,4.74
2023-11-18T00:45:55.827Z,4.82
2023-11-18T00:48:22.256Z,4.83
2023-11-18T00:50:48.680Z,4.73
2023-11-18T00:53:15.050Z,4.62
2023-11-18T00:55:42.368Z,4.55
2023-11-18T00:58:09.157Z,4.42
2023-11-18T01:00:37.301Z,4.31
2023-11-18T01:03:04.384Z,4.26
2023-11-18T01:05:32.618Z,4.27
2023-11-18T01:07:59.296Z,4.39
2023-11-18T01:10:25.769Z,4.54
2023-11-18T01:12:52.304Z,4.65
2023-11-18T01:15:18.702Z,4.76
2023-11-18T01:17:45.522Z,4.82
2023-11-18T01:20:13.490Z,4.89
2023-11-18T01:22:40.647Z,4.95
2023-11-18T01:25:07.792Z,4.99
2023-11-18T01:27:35.016Z,5.00
2023-11-18T01:30:02.082Z,5.05
2023-11-18T01:32:30.920Z,5.02
2023-11-18T01:34:58.032Z,4.98
2023-11-18T01:37:25.610Z,4.96
2023-11-18T01:39:52.216Z,4.93
2023-11-18T01:42:18.601Z,4.88
2023-11-18T01:44:45.208Z,4.89
2023-11-18T01:47:13.717Z,4.83
2023-11-18T01:49:42.003Z,4.86
2023-11-18T01:52:09.432Z,4.86
2023-11-18T01:54:41.472Z,4.90
2023-11-18T01:57:10.412Z,4.89
2023-11-18T01:59:38.962Z,4.90
2023-11-18T02:02:05.502Z,4.93
2023-11-18T02:04:32.109Z,4.86
2023-11-18T02:06:59.411Z,4.80
2023-11-18T02:09:30.118Z,4.75
2023-11-18T02:12:17.469Z,4.76
2023-11-18T02:14:46.131Z,4.80
2023-11-18T02:17:15.555Z,4.84
2023-11-18T02:19:43.555Z,4.86
2023-11-18T02:22:12.335Z,4.88
2023-11-18T02:24:38.891Z,4.89
2023-11-18T02:27:12.596Z,4.90
2023-11-18T02:29:44.841Z,4.90
2023-11-18T02:32:37.831Z,4.91
2023-11-18T02:35:32.145Z,4.89
2023-11-18T02:38:01.477Z,4.86
2023-11-18T02:40:36.462Z,4.85
2023-11-18T02:43:06.319Z,4.84
2023-11-18T02:45:33.603Z,4.83
2023-11-18T02:48:00.155Z,4.81
2023-11-18T02:50:28.462Z,4.81
2023-11-18T02:52:55.106Z,4.84
2023-11-18T02:55:25.633Z,4.86
2023-11-18T02:57:52.768Z,4.86
2023-11-18T03:00:22.724Z,4.86
2023-11-18T03:02:51.207Z,4.87
2023-11-18T03:05:17.788Z,4.88
2023-11-18T03:07:50.988Z,4.87
2023-11-18T03:10:23.960Z,4.83
2023-11-18T03:12:54.850Z,4.77
2023-11-18T03:15:23.194Z,4.74
2023-11-18T03:17:51.064Z,4.70
2023-11-18T03:20:18.494Z,4.71
2023-11-18T03:22:48.787Z,4.67
2023-11-18T03:25:15.597Z,4.66
2023-11-18T03:27:42.196Z,4.68
2023-11-18T03:30:09.884Z,4.68
2023-11-18T03:32:37.761Z,4.70
2023-11-18T03:35:05.512Z,4.67
2023-11-18T03:37:32.772Z,4.68
2023-11-18T03:39:59.251Z,4.69
2023-11-18T03:42:25.673Z,4.71
2023-11-18T03:44:52.088Z,4.76
2023-11-18T03:47:18.475Z,4.80
2023-11-18T03:49:44.910Z,4.82
2023-11-18T03:52:11.383Z,4.85
2023-11-18T03:54:37.744Z,4.86
2023-11-18T03:57:04.369Z,4.88
2023-11-18T03:59:30.827Z,4.90
2023-11-18T04:01:57.301Z,4.92
2023-11-18T04:04:23.764Z,4.92
2023-11-18T04:06:50.139Z,4.94
2023-11-18T04:09:17.136Z,4.94
2023-11-18T04:11:45.978Z,4.93
2023-11-18T04:14:14.169Z,4.92
2023-11-18T04:16:40.659Z,4.90
2023-11-18T04:19:07.527Z,4.90
2023-11-18T04:21:34.075Z,4.89
2023-11-18T04:24:00.447Z,4.88
2023-11-18T04:26:26.817Z,4.89
2023-11-18T04:28:53.574Z,4.90
2023-11-18T04:31:20.013Z,4.91
2023-11-18T04:33:46.529Z,4.92
2023-11-18T04:36:14.555Z,4.94
2023-11-18T04:38:41.006Z,4.96
2023-11-18T04:41:07.691Z,4.94
2023-11-18T04:43:42.382Z,4.95
2023-11-18T04:46:12.071Z,4.97
2023-11-18T04:48:41.702Z,5.01
2023-11-18T04:51:09.017Z,5.03
2023-11-18T04:53:35.545Z,5.05
2023-11-18T04:56:02.244Z,5.06
2023-11-18T04:58:28.645Z,5.08
2023-11-18T05:00:55.020Z,5.10
2023-11-18T05:03:22.480Z,5.12
2023-11-18T05:05:48.973Z,5.13
2023-11-18T05:08:20.625Z,5.12
2023-11-18T05:10:48.443Z,5.11
2023-11-18T05:13:17.452Z,5.11
2023-11-18T05:15:47.493Z,5.12
2023-11-18T05:18:15.837Z,5.14
2023-11-18T05:20:43.407Z,5.14
2023-11-18T05:23:13.196Z,5.16
2023-11-18T05:25:46.499Z,5.15
2023-11-18T05:28:12.992Z,5.14
2023-11-18T05:30:44.105Z,5.15
2023-11-18T05:33:11.814Z,5.15
2023-11-18T05:35:38.235Z,5.17
2023-11-18T05:38:07.118Z,5.18
2023-11-18T05:40:33.753Z,5.17
2023-11-18T05:43:00.278Z,5.14
2023-11-18T05:45:32.714Z,5.14
2023-11-18T05:47:59.171Z,5.17
2023-11-18T05:50:26.030Z,5.19
2023-11-18T05:52:53.548Z,5.19
2023-11-18T05:55:19.917Z,5.19
2023-11-18T05:57:46.568Z,5.20
2023-11-18T06:00:20.980Z,5.21
2023-11-18T06:02:52.724Z,5.21
2023-11-18T06:05:19.399Z,5.23
2023-11-18T06:07:48.343Z,5.22
2023-11-18T06:10:14.694Z,5.23
2023-11-18T06:12:42.048Z,5.23
2023-11-18T06:15:10.206Z,5.23
2023-11-18T06:17:36.721Z,5.24
2023-11-18T06:20:07.182Z,5.25
2023-11-18T06:22:33.658Z,5.26
2023-11-18T06:25:00.186Z,5.25
2023-11-18T06:27:26.694Z,5.25
2023-11-18T06:29:55.602Z,5.26
2023-11-18T06:32:22.317Z,5.26
2023-11-18T06:34:50.379Z,5.28
2023-11-18T06:37:17.915Z,5.30
2023-11-18T06:39:46.690Z,5.33
2023-11-18T06:42:13.206Z,5.35
2023-11-18T06:44:39.690Z,5.35
2023-11-18T06:47:07.663Z,5.35
2023-11-18T06:49:38.016Z,5.35
2023-11-18T06:52:04.784Z,5.34
2023-11-18T06:54:34.284Z,5.37
2023-11-18T06:57:00.904Z,5.41
2023-11-18T06:59:27.508Z,5.42
2023-11-18T07:01:54.539Z,5.42
2023-11-18T07:04:21.022Z,5.41
2023-11-18T07:06:47.445Z,5.42
2023-11-18T07:09:18.485Z,5.45
2023-11-18T07:11:47.730Z,5.45
2023-11-18T07:14:15.864Z,5.45
2023-11-18T07:16:44.053Z,5.46
2023-11-18T07:19:21.598Z,5.47
2023-11-18T07:21:50.333Z,5.47
2023-11-18T07:24:18.079Z,5.47
2023-11-18T07:26:45.324Z,5.48
2023-11-18T07:29:12.665Z,5.48
2023-11-18T07:31:39.127Z,5.48
2023-11-18T07:34:06.777Z,5.47
2023-11-18T07:36:34.202Z,5.48
2023-11-18T07:39:04.239Z,5.48
2023-11-18T07:41:33.666Z,5.49
2023-11-18T07:44:01.575Z,5.49
2023-11-18T07:46:29.745Z,5.48
2023-11-18T07:48:56.633Z,5.48
2023-11-18T07:51:23.970Z,5.49
2023-11-18T07:53:51.091Z,5.51
2023-11-18T07:56:17.933Z,5.53
2023-11-18T07:58:48.506Z,5.55
2023-11-18T08:01:17.375Z,5.56
2023-11-18T08:03:45.052Z,5.57
2023-11-18T08:06:13.018Z,5.57
2023-11-18T08:08:39.432Z,5.58
2023-11-18T08:11:06.747Z,5.58
2023-11-18T08:13:33.568Z,5.60
2023-11-18T08:16:00.107Z,5.61
2023-11-18T08:18:28.570Z,5.62
2023-11-18T08:20:55.000Z,5.64
2023-11-18T08:23:21.602Z,5.65
2023-11-18T08:25:48.056Z,5.67
2023-11-18T08:28:14.949Z,5.69
2023-11-18T08:30:41.444Z,5.70
2023-11-18T08:33:10.707Z,5.73
2023-11-18T08:35:38.029Z,5.77
2023-11-18T08:38:05.950Z,5.80
2023-11-18T08:40:32.314Z,5.85
2023-11-18T08:42:59.166Z,5.88
2023-11-18T08:45:31.130Z,5.94
2023-11-18T08:47:58.410Z,5.99
2023-11-18T08:50:25.999Z,6.02
2023-11-18T08:52:58.958Z,6.05
2023-11-18T08:55:48.845Z,6.07
2023-11-18T08:58:22.943Z,6.11
2023-11-18T09:00:55.554Z,6.14
2023-11-18T09:03:35.401Z,6.16
2023-11-18T09:06:08.231Z,6.18
2023-11-18T09:08:37.156Z,6.21
2023-11-18T09:11:06.435Z,6.23
2023-11-18T09:13:35.751Z,6.23
2023-11-18T09:16:05.135Z,6.26
2023-11-18T09:18:34.593Z,6.27
2023-11-18T09:21:02.454Z,6.31
2023-11-18T09:23:29.956Z,6.33
2023-11-18T09:25:56.639Z,6.35
2023-11-18T09:28:30.601Z,6.35
2023-11-18T09:30:58.506Z,6.35
2023-11-18T09:33:26.961Z,6.34
2023-11-18T09:35:59.438Z,6.33
2023-11-18T09:38:30.365Z,6.33
2023-11-18T09:41:04.243Z,6.33
2023-11-18T09:43:37.406Z,6.30
2023-11-18T09:46:13.921Z,6.29
2023-11-18T09:48:48.790Z,6.26
2023-11-18T09:51:23.315Z,6.25
2023-11-18T09:53:53.688Z,6.27
2023-11-18T09:56:39.125Z,6.29
2023-11-18T09:59:17.014Z,6.32
2023-11-18T10:01:45.574Z,6.34
2023-11-18T10:04:13.185Z,6.36
2023-11-18T10:06:40.651Z,6.37
2023-11-18T10:09:16.947Z,6.38
2023-11-18T10:11:50.348Z,6.38
2023-11-18T10:14:17.495Z,6.37
2023-11-18T10:16:49.721Z,6.35
2023-11-18T10:19:18.579Z,6.35
2023-11-18T10:21:49.762Z,6.36
2023-11-18T10:24:20.434Z,6.38
2023-11-18T10:26:58.011Z,6.40
2023-11-18T10:29:30.354Z,6.41
2023-11-18T10:32:17.336Z,6.43
2023-11-18T10:34:44.039Z,6.45
2023-11-18T10:37:12.083Z,6.44
2023-11-18T10:39:38.744Z,6.45
2023-11-18T10:42:05.525Z,6.45
2023-11-18T10:44:32.260Z,6.46
2023-11-18T10:47:02.632Z,6.47
2023-11-18T10:49:30.091Z,6.46
2023-11-18T10:51:57.956Z,6.48
2023-11-18T10:54:27.366Z,6.49
2023-11-18T10:56:57.763Z,6.48
2023-11-18T10:59:24.498Z,6.51
2023-11-18T11:01:51.565Z,6.50
2023-11-18T11:04:21.568Z,6.51
2023-11-18T11:06:55.248Z,6.52
2023-11-18T11:09:28.684Z,6.53
2023-11-18T11:11:57.092Z,6.56
2023-11-18T11:14:36.473Z,6.57
2023-11-18T11:17:15.080Z,6.57
2023-11-18T11:20:13.728Z,6.57
2023-11-18T11:23:10.020Z,6.58
2023-11-18T11:25:45.062Z,6.59
2023-11-18T11:28:21.717Z,6.60
2023-11-18T11:31:04.906Z,6.66
2023-11-18T11:33:44.132Z,6.70
2023-11-18T11:36:17.112Z,6.78
2023-11-18T11:38:47.858Z,6.78
2023-11-18T11:41:20.809Z,6.78
2023-11-18T11:43:50.520Z,6.79
2023-11-18T11:46:24.285Z,6.81
2023-11-18T11:48:54.273Z,6.81
2023-11-18T11:51:31.377Z,6.83
2023-11-18T11:54:05.365Z,6.85
2023-11-18T11:56:48.366Z,6.86
2023-11-18T11:59:18.053Z,6.89
2023-11-18T12:01:48.366Z,6.92
2023-11-18T12:04:30.090Z,6.94
2023-11-18T12:07:05.949Z,6.96
2023-11-18T12:09:39.506Z,6.99
2023-11-18T12:12:13.399Z,7.04
2023-11-18T12:14:57.582Z,7.06
2023-11-18T12:17:26.829Z,7.09
2023-11-18T12:19:59.957Z,7.13
2023-11-18T12:22:41.859Z,7.17
2023-11-18T12:25:08.590Z,7.23
2023-11-18T12:27:41.270Z,7.27
2023-11-18T12:30:16.833Z,7.27
2023-11-18T12:33:24.179Z,7.26
2023-11-18T12:35:51.198Z,7.26
2023-11-18T12:38:24.965Z,7.26
2023-11-18T12:41:06.170Z,7.29
2023-11-18T12:43:51.313Z,7.30
2023-11-18T12:46:58.799Z,7.30
2023-11-18T12:49:26.083Z,7.30
2023-11-18T12:51:56.003Z,7.30
2023-11-18T12:54:30.526Z,7.29
2023-11-18T12:56:57.285Z,7.28
2023-11-18T12:59:24.747Z,7.28
2023-11-18T13:01:57.596Z,7.28
2023-11-18T13:04:28.742Z,7.29
2023-11-18T13:06:56.363Z,7.28
2023-11-18T13:09:27.536Z,7.27
2023-11-18T13:11:57.274Z,7.29
2023-11-18T13:14:26.238Z,7.28
2023-11-18T13:16:57.331Z,7.30
2023-11-18T13:19:30.616Z,7.32
2023-11-18T13:22:05.551Z,7.34
2023-11-18T13:24:32.364Z,7.36
2023-11-18T13:27:04.711Z,7.39
2023-11-18T13:29:32.308Z,7.38
2023-11-18T13:32:01.465Z,7.39
2023-11-18T13:34:29.014Z,7.39
2023-11-18T13:36:56.034Z,7.40
2023-11-18T13:39:23.235Z,7.40
2023-11-18T13:41:51.453Z,7.41
2023-11-18T13:44:39.315Z,7.44
2023-11-18T13:47:06.757Z,7.45
2023-11-18T13:49:35.842Z,7.46
2023-11-18T13:52:03.335Z,7.47
2023-11-18T13:54:32.389Z,7.49
2023-11-18T13:57:04.380Z,7.50
2023-11-18T13:59:31.412Z,7.52
2023-11-18T14:01:59.740Z,7.52
2023-11-18T14:04:28.649Z,7.51
2023-11-18T14:07:00.209Z,7.51
2023-11-18T14:09:27.963Z,7.52
2023-11-18T14:11:57.859Z,7.51
2023-11-18T14:14:26.190Z,7.50
2023-11-18T14:16:58.833Z,7.48
2023-11-18T14:19:31.395Z,7.48
2023-11-18T14:21:58.536Z,7.47
2023-11-18T14:24:28.623Z,7.48
2023-11-18T14:26:55.646Z,7.48
2023-11-18T14:29:22.125Z,7.49
2023-11-18T14:31:48.722Z,7.49
2023-11-18T14:34:15.457Z,7.49
2023-11-18T14:36:42.682Z,7.50
2023-11-18T14:39:18.583Z,7.50
2023-11-18T14:41:46.773Z,7.52
2023-11-18T14:44:13.736Z,7.51
2023-11-18T14:46:42.135Z,7.51
2023-11-18T14:49:08.896Z,7.52
2023-11-18T14:51:36.860Z,7.52
2023-11-18T14:54:03.561Z,7.52
2023-11-18T14:56:30.590Z,7.53
2023-11-18T14:58:57.096Z,7.52
2023-11-18T15:01:23.828Z,7.53
2023-11-18T15:03:50.321Z,7.54
2023-11-18T15:06:25.979Z,7.55
2023-11-18T15:08:53.621Z,7.56
2023-11-18T15:11:24.335Z,7.56
2023-11-18T15:13:54.301Z,7.59
2023-11-18T15:16:21.169Z,7.61
2023-11-18T15:18:48.679Z,7.61
2023-11-18T15:21:16.391Z,7.61
2023-11-18T15:23:43.383Z,7.61
2023-11-18T15:26:10.736Z,7.60
2023-11-18T15:28:37.408Z,7.60
2023-11-18T15:31:05.112Z,7.62
2023-11-18T15:33:32.428Z,7.60
2023-11-18T15:35:58.945Z,7.60
2023-11-18T15:38:25.795Z,7.60
2023-11-18T15:40:52.416Z,7.61
2023-11-18T15:43:18.990Z,7.61
2023-11-18T15:45:48.255Z,7.62
2023-11-18T15:48:15.730Z,7.63
2023-11-18T15:50:42.674Z,7.64
2023-11-18T15:53:09.237Z,7.64
2023-11-18T15:55:38.798Z,7.64
2023-11-18T15:58:05.469Z,7.67
2023-11-18T16:00:32.796Z,7.67
2023-11-18T16:03:02.525Z,7.68
2023-11-18T16:05:34.329Z,7.69
2023-11-18T16:08:02.511Z,7.70
2023-11-18T16:10:29.108Z,7.72
2023-11-18T16:12:58.621Z,7.74
2023-11-18T16:15:26.886Z,7.75
2023-11-18T16:17:54.933Z,7.76
2023-11-18T16:20:23.460Z,7.77
2023-11-18T16:22:51.723Z,7.80
2023-11-18T16:25:21.485Z,7.81
2023-11-18T16:27:49.000Z,7.82
2023-11-18T16:30:16.283Z,7.84
2023-11-18T16:32:44.954Z,7.87
2023-11-18T16:35:14.909Z,7.90
2023-11-18T16:37:43.168Z,7.94
2023-11-18T16:40:15.119Z,7.95
2023-11-18T16:42:45.044Z,7.95
2023-11-18T16:45:15.398Z,7.97
2023-11-18T16:47:43.962Z,7.98
2023-11-18T16:50:15.492Z,7.99
2023-11-18T16:52:42.065Z,8.00
2023-11-18T16:55:10.098Z,8.02
2023-11-18T16:57:37.980Z,8.03
2023-11-18T17:00:23.418Z,8.06
2023-11-18T17:02:59.642Z,8.09
2023-11-18T17:05:30.492Z,8.11
2023-11-18T17:07:57.774Z,8.13
2023-11-18T17:10:24.729Z,8.17
2023-11-18T17:12:52.688Z,8.22
2023-11-18T17:15:19.761Z,8.24
2023-11-18T17:17:47.946Z,8.27
2023-11-18T17:20:16.710Z,8.29
2023-11-18T17:22:43.896Z,8.31
2023-11-18T17:25:17.085Z,8.33
2023-11-18T17:27:45.522Z,8.35
2023-11-18T17:30:14.315Z,8.38
2023-11-18T17:32:44.508Z,8.42
2023-11-18T17:35:14.717Z,8.44
2023-11-18T17:37:41.953Z,8.47
2023-11-18T17:40:12.424Z,8.47
2023-11-18T17:42:40.033Z,8.50
2023-11-18T17:45:08.044Z,8.52
2023-11-18T17:47:43.128Z,8.55
2023-11-18T17:50:13.216Z,8.57
2023-11-18T17:52:45.249Z,8.58
2023-11-18T17:55:15.977Z,8.62
2023-11-18T17:57:44.756Z,8.65
2023-11-18T18:00:13.760Z,8.70
2023-11-18T18:02:41.391Z,8.73
2023-11-18T18:05:09.153Z,8.76
2023-11-18T18:07:35.711Z,8.78
2023-11-18T18:10:02.301Z,8.83
2023-11-18T18:12:28.819Z,8.85
2023-11-18T18:14:56.748Z,8.88
2023-11-18T18:17:23.177Z,8.90
2023-11-18T18:19:49.594Z,8.94
2023-11-18T18:22:16.037Z,8.98
2023-11-18T18:24:43.103Z,9.02
2023-11-18T18:27:09.670Z,9.06
2023-11-18T18:29:36.212Z,9.11
2023-11-18T18:32:03.360Z,9.14
2023-11-18T18:34:31.502Z,9.18
2023-11-18T18:36:57.995Z,9.24
2023-11-18T18:39:25.436Z,9.29
2023-11-18T18:41:51.935Z,9.35
2023-11-18T18:44:19.248Z,9.42
2023-11-18T18:46:45.774Z,9.48
2023-11-18T18:49:12.487Z,9.52
2023-11-18T18:51:39.884Z,9.57
2023-11-18T18:54:06.380Z,9.61
2023-11-18T18:56:32.920Z,9.66
2023-11-18T18:58:59.465Z,9.70
2023-11-18T19:01:27.725Z,9.75
2023-11-18T19:03:54.435Z,9.80
2023-11-18T19:06:21.138Z,9.86
2023-11-18T19:08:47.581Z,9.93
2023-11-18T19:11:14.113Z,10.03
2023-11-18T19:13:40.750Z,10.09
2023-11-18T19:16:08.688Z,10.12
2023-11-18T19:18:35.179Z,10.15
2023-11-18T19:21:01.594Z,10.19
2023-11-18T19:23:28.088Z,10.25
2023-11-18T19:25:54.501Z,10.30
2023-11-18T19:28:20.952Z,10.35
2023-11-18T19:30:47.666Z,10.36
2023-11-18T19:33:14.161Z,10.39
2023-11-18T19:35:40.727Z,10.46
2023-11-18T19:38:08.124Z,10.46
2023-11-18T19:40:34.843Z,10.52
2023-11-18T19:43:01.515Z,10.56
2023-11-18T19:45:28.175Z,10.60
2023-11-18T19:47:54.704Z,10.62
2023-11-18T19:52:53.811Z,10.66
2023-11-18T19:55:21.855Z,10.69
2023-11-18T19:57:48.507Z,10.68
2023-11-18T20:00:19.213Z,10.73
2023-11-18T20:02:46.457Z,10.78
2023-11-18T20:05:13.921Z,10.81
2023-11-18T20:07:40.549Z,10.83
2023-11-18T20:10:09.879Z,10.84
2023-11-18T20:12:36.828Z,10.86
2023-11-18T20:15:03.696Z,10.90
2023-11-18T20:17:33.353Z,10.94
2023-11-18T20:20:00.963Z,10.98
2023-11-18T20:22:27.468Z,10.99
2023-11-18T20:24:53.829Z,11.02
2023-11-18T20:27:20.816Z,11.06
2023-11-18T20:29:47.276Z,11.10
2023-11-18T20:32:13.807Z,11.13
2023-11-18T20:34:40.443Z,11.22
2023-11-18T20:37:07.106Z,11.31
2023-11-18T20:39:34.752Z,11.36
2023-11-18T20:42:01.067Z,11.40
2023-11-18T20:44:27.544Z,11.41
2023-11-18T20:46:54.086Z,11.44
2023-11-18T20:49:21.640Z,11.49
2023-11-18T20:51:48.116Z,11.55
2023-11-18T20:54:15.160Z,11.51
2023-11-18T20:56:41.876Z,11.56
2023-11-18T20:59:08.466Z,11.63
2023-11-18T21:01:34.927Z,11.64
2023-11-18T21:04:01.526Z,11.66
2023-11-18T21:06:28.224Z,11.70
2023-11-18T21:08:55.897Z,11.72
2023-11-18T21:11:24.947Z,11.75
2023-11-18T21:13:51.510Z,11.79
2023-11-18T21:16:17.922Z,11.83
2023-11-18T21:18:44.580Z,11.92
2023-11-18T21:21:12.571Z,11.90
2023-11-18T21:23:39.797Z,11.86
2023-11-18T21:26:06.409Z,11.93
2023-11-18T21:28:34.223Z,11.97
2023-11-18T21:31:01.722Z,11.99
2023-11-18T21:33:28.758Z,12.00
2023-11-18T21:35:55.572Z,12.00
2023-11-18T21:38:22.047Z,12.04
2023-11-18T21:40:48.687Z,12.04
2023-11-18T21:43:15.170Z,12.11
2023-11-18T21:45:43.022Z,12.08
2023-11-18T21:48:09.760Z,12.10
2023-11-18T21:50:36.571Z,12.11
2023-11-18T21:53:03.778Z,12.15
2023-11-18T21:55:30.683Z,12.15
2023-11-18T21:57:57.120Z,12.16
2023-11-18T22:00:25.275Z,12.22
2023-11-18T22:02:51.932Z,12.25
2023-11-18T22:05:18.874Z,12.29
2023-11-18T22:07:46.709Z,12.32
2023-11-18T22:10:18.054Z,12.31
2023-11-18T22:12:44.831Z,12.35
2023-11-18T22:15:14.375Z,12.37
2023-11-18T22:17:41.104Z,12.39
2023-11-18T22:20:09.453Z,12.41
2023-11-18T22:22:35.964Z,12.49
2023-11-18T22:25:02.491Z,12.49
2023-11-18T22:27:29.991Z,12.48
2023-11-18T22:29:56.386Z,12.52
2023-11-18T22:32:22.973Z,12.53
2023-11-18T22:34:49.563Z,12.59
2023-11-18T22:37:15.994Z,12.62
2023-11-18T22:39:43.534Z,12.64
2023-11-18T22:42:14.202Z,12.70
2023-11-18T22:44:46.559Z,12.74
2023-11-18T22:47:13.770Z,12.75
2023-11-18T22:49:41.786Z,12.77
2023-11-18T22:52:09.232Z,12.76
2023-11-18T22:54:36.246Z,12.74
2023-11-18T22:57:02.761Z,12.74
2023-11-18T22:59:29.282Z,12.77
2023-11-18T23:01:55.811Z,12.77
2023-11-18T23:04:22.987Z,12.79
2023-11-18T23:06:56.089Z,12.82
2023-11-18T23:09:22.755Z,12.82
2023-11-18T23:11:49.244Z,12.82
2023-11-18T23:14:15.792Z,12.86
2023-11-18T23:16:42.255Z,12.87
2023-11-18T23:19:09.225Z,12.87
2023-11-18T23:21:36.786Z,12.89
2023-11-18T23:24:03.426Z,12.92
2023-11-18T23:26:30.689Z,12.89
2023-11-18T23:28:57.445Z,12.88
2023-11-18T23:31:27.130Z,12.88
2023-11-18T23:33:54.060Z,12.88
2023-11-18T23:36:20.862Z,12.90
2023-11-18T23:38:47.368Z,12.85
2023-11-18T23:41:14.656Z,12.89
2023-11-18T23:43:42.935Z,12.86
2023-11-18T23:46:09.544Z,12.89
2023-11-18T23:48:38.042Z,12.88
2023-11-18T23:51:06.147Z,12.88
2023-11-18T23:53:33.900Z,12.88
2023-11-18T23:56:00.565Z,12.90
2023-11-18T23:58:27.086Z,12.90
